Mokena, IL

9:52 PM CDT on May 25, 2015 (GMT -0500)
BoulderRidge | | Change Station
CLOSE
Current Station
Personal Weather Station
Location: Mokena, IL
Elevation: 715 ft
Nearby Weather Stations

Elev 715 ft 41.54 °N, 87.92 °W | Updated 7 minutes ago

Partly Cloudy
Partly Cloudy
70.3 °F
Feels Like 74 °F
N
0.0
Wind Variable Wind from WSW

Today
High -- | Low -- °F
--% Chance of Precip.
Yesterday
High -- | Low -- °F
Precip. -- in
5:24 AM 8:13 PM
First Quarter, 54% visible
Pressure 29.95 in
Visibility 10.0 miles
Clouds Clear
Heat Index 74 °F
Dew Point 59 °F
Humidity 68%
Rainfall 0.10 in
Snow Depth Not available.
UV 0 out of 12
Pollen 6.70 out of 12
Air Quality Not available.
Flu Activity Sporadic
METAR KLOT 260235Z AUTO 19006KT 10SM CLR 20/15 A2995 RMK AO2 T02000145

More Conditions Fewer Conditions

Pressure 29.95 in
Visibility 10.0 miles
Clouds Clear
Heat Index 74 °F
Dew Point 59 °F
Humidity 68%
Rainfall 0.10 in
Snow Depth Not available.
UV 0 out of 12
Pollen 6.70 out of 12
Air Quality Not available.
Flu Activity Sporadic
METAR KLOT 260235Z AUTO 19006KT 10SM CLR 20/15 A2995 RMK AO2 T02000145

More Conditions Fewer Conditions

10-Day Weather Forecast

Almanac

Astronomy

May. 25, 2015 Rise Set
Actual Time
Civil Twilight
Nautical Twilight
Astronomical Twilight
Moon
Length of Visible Light
Length of Day
Tomorrow will be .
, % of the Moon is Illuminated

Today's Extremes

State Highs State Lows

Community

WunderPhotos

Upload Photos

1,824,238 photos uploaded!

WunderBlogs® & News

Nearby

Air Quality

  Air Quality AQ Index Pollutant
Not available.

Snow Depth

Station Depth Elevation

Earthquake Activity

City Distance Mag. Time & Date
Minimum magnitude displayed is 2.5.

Coastal Water Temperatures

Place Temperature

Stations

Nearby Weather Stations

Station Location Temp. Windchill Dew Point Humidity Wind Precip. Elev Updated Type